Time;durP1;ratioP1;P1;durP2;ratioP2;P2;SDS_P1;SDS_P2;PMS_P1;PMS_P2;Temp;Humidity;BMP_temperature;BMP_pressure;BME280_temperature;BME280_humidity;BME280_pressure;Samples;Min_cycle;Max_cycle;Signal;HPM_P1;HPM_P2
2022/05/25 00:01:17;;;;;;;1.30;1.00;;;;;;;19.01;58.35;96489.34;10183005;29;20052;-82
2022/05/25 00:06:37;;;;;;;1.45;0.90;;;;;;;19.02;58.49;96506.34;10183950;29;20044;-82
2022/05/25 00:11:56;;;;;;;0.90;0.90;;;;;;;19.01;58.46;96507.47;10157044;29;20124;-82
2022/05/25 00:17:16;;;;;;;1.30;1.00;;;;;;;19.01;58.45;96504.75;10186129;29;20044;-82
2022/05/25 00:22:45;;;;;;;1.33;1.00;;;;;;;19.01;58.33;96491.28;10182752;29;20077;-82
2022/05/25 00:28:07;;;;;;;0.95;0.82;;;;;;;19.00;58.34;96492.41;10197764;29;20048;-82
2022/05/25 00:33:26;;;;;;;1.20;0.80;;;;;;;18.99;58.30;96488.88;10182474;29;20055;-82
2022/05/25 00:38:46;;;;;;;0.90;0.77;;;;;;;19.00;58.22;96490.47;10170636;29;20472;-82
2022/05/25 00:44:05;;;;;;;2.05;0.80;;;;;;;18.98;58.19;96484.63;10184016;29;20056;-82
2022/05/25 00:49:30;;;;;;;1.00;0.90;;;;;;;18.98;58.20;96481.94;10198826;29;20111;-82
2022/05/25 00:54:53;;;;;;;1.60;0.75;;;;;;;18.98;58.22;96479.22;10185119;29;20423;-82
2022/05/25 01:00:14;;;;;;;1.45;0.90;;;;;;;18.98;58.18;96473.03;10193835;29;20052;-82
2022/05/25 01:05:54;;;;;;;0.80;0.80;;;;;;;18.96;58.25;96473.38;10182334;29;20052;-82
2022/05/25 01:11:14;;;;;;;0.73;0.73;;;;;;;18.96;58.11;96478.75;10171897;29;20056;-82
2022/05/25 01:16:36;;;;;;;1.10;0.85;;;;;;;18.97;58.19;96485.72;10171180;29;20060;-82
2022/05/25 01:22:25;;;;;;;0.80;0.80;;;;;;;18.96;58.18;96484.16;10196490;29;20047;-82
2022/05/25 01:27:45;;;;;;;0.80;0.80;;;;;;;18.94;58.04;96497.19;10176389;29;20056;-82
2022/05/25 01:33:27;;;;;;;0.65;0.63;;;;;;;18.94;58.23;96494.50;10182571;29;20052;-82
2022/05/25 01:38:52;;;;;;;0.73;0.73;;;;;;;18.93;58.07;96490.19;10196027;29;20496;-82
2022/05/25 01:44:16;;;;;;;1.00;0.77;;;;;;;18.94;58.06;96489.09;10181194;29;20119;-82
2022/05/25 01:49:57;;;;;;;0.70;0.70;;;;;;;18.93;58.11;96479.41;10178485;29;20119;-82
2022/05/25 01:55:39;;;;;;;0.70;0.70;;;;;;;18.93;58.15;96479.41;10168367;29;20048;-82
2022/05/25 02:00:59;;;;;;;0.70;0.70;;;;;;;18.92;57.88;96484.03;10192896;29;20048;-82
2022/05/25 02:06:50;;;;;;;2.90;0.90;;;;;;;18.93;57.95;96479.41;10165256;29;20076;-81
2022/05/25 02:12:49;;;;;;;0.70;0.60;;;;;;;18.91;57.87;96482.44;10177449;29;20492;-82
2022/05/25 02:18:31;;;;;;;0.75;0.70;;;;;;;18.91;57.91;96490.53;10165861;29;20056;-82
2022/05/25 02:24:12;;;;;;;0.70;0.70;;;;;;;18.91;57.91;96490.53;10183530;29;20048;-82
2022/05/25 02:29:40;;;;;;;0.70;0.70;;;;;;;18.90;57.99;96486.25;10179269;29;20056;-82
2022/05/25 02:35:00;;;;;;;0.80;0.80;;;;;;;18.89;57.92;96489.28;10179957;29;20080;-82
2022/05/25 02:40:19;;;;;;;0.82;0.80;;;;;;;18.89;57.94;96475.78;10176722;29;20040;-81
2022/05/25 02:45:39;;;;;;;0.70;0.70;;;;;;;18.89;57.80;96475.78;10173524;29;20044;-82
2022/05/25 02:50:59;;;;;;;0.70;0.63;;;;;;;18.89;57.63;96492.75;10179031;29;20060;-82
2022/05/25 02:56:19;;;;;;;0.60;0.60;;;;;;;18.89;57.93;96486.56;10178073;29;20096;-82
2022/05/25 03:01:39;;;;;;;0.70;0.70;;;;;;;18.88;57.80;96493.09;10182612;29;20052;-82
2022/05/25 03:06:58;;;;;;;0.60;0.60;;;;;;;18.88;57.86;96485.00;10174325;29;20056;-82
2022/05/25 03:12:18;;;;;;;0.60;0.60;;;;;;;18.87;57.73;96491.50;10185138;29;20048;-82
2022/05/25 03:17:37;;;;;;;0.75;0.73;;;;;;;18.87;57.77;96496.91;10178159;29;20081;-82
2022/05/25 03:22:57;;;;;;;1.20;0.88;;;;;;;18.86;57.87;96509.63;10194372;29;20052;-82
2022/05/25 03:28:16;;;;;;;1.23;0.60;;;;;;;18.85;57.79;96497.22;10153031;29;20060;-82
2022/05/25 03:33:36;;;;;;;0.63;0.63;;;;;;;18.85;57.70;96501.84;10187351;29;20052;-82
2022/05/25 03:38:55;;;;;;;0.50;0.50;;;;;;;18.85;57.65;96499.94;10199881;29;20052;-82
2022/05/25 03:44:16;;;;;;;0.68;0.68;;;;;;;18.85;57.81;96501.84;10182107;29;20052;-82
2022/05/25 03:49:36;;;;;;;0.90;0.70;;;;;;;18.83;57.67;96512.97;10195250;29;20092;-82
2022/05/25 03:54:55;;;;;;;0.63;0.60;;;;;;;18.85;57.77;96513.44;10185186;29;20131;-82
2022/05/25 04:00:15;;;;;;;0.60;0.60;;;;;;;18.83;57.83;96510.25;10174758;29;20048;-81
2022/05/25 04:05:34;;;;;;;0.82;0.80;;;;;;;18.84;57.84;96502.97;10196830;29;20476;-82
2022/05/25 04:10:54;;;;;;;0.60;0.60;;;;;;;18.81;57.83;96493.59;10164679;29;20051;-82
2022/05/25 04:16:13;;;;;;;0.82;0.70;;;;;;;18.82;57.80;96505.19;10172578;29;20091;-82
2022/05/25 04:21:32;;;;;;;0.63;0.60;;;;;;;18.83;57.64;96504.09;10169735;29;20143;-82
2022/05/25 04:26:52;;;;;;;1.27;0.70;;;;;;;18.81;57.83;96506.31;10194383;29;20051;-82
2022/05/25 04:32:11;;;;;;;0.52;0.52;;;;;;;18.83;57.80;96512.19;10196626;29;20052;-82
2022/05/25 04:37:49;;;;;;;0.60;0.60;;;;;;;18.81;57.88;96504.41;10182985;29;20066;-82
2022/05/25 04:43:13;;;;;;;1.27;0.70;;;;;;;18.80;57.78;96523.63;10195861;29;20495;-82
2022/05/25 04:48:33;;;;;;;0.70;0.70;;;;;;;18.80;57.83;96529.81;10181913;29;20048;-82
2022/05/25 04:53:52;;;;;;;0.95;0.63;;;;;;;18.79;57.79;96533.59;10166443;29;20056;-83
2022/05/25 04:59:12;;;;;;;3.13;0.80;;;;;;;18.80;57.80;96513.63;10173487;29;20055;-81
2022/05/25 05:04:32;;;;;;;1.10;0.90;;;;;;;18.80;58.07;96510.13;10181378;29;20497;-81
2022/05/25 05:09:51;;;;;;;0.80;0.80;;;;;;;18.81;58.01;96503.63;10184603;29;20142;-81
2022/05/25 05:15:11;;;;;;;1.05;0.82;;;;;;;18.81;57.96;96503.63;10163449;29;20125;-81
2022/05/25 05:20:30;;;;;;;1.08;0.80;;;;;;;18.80;58.19;96523.63;10152845;29;20063;-81
2022/05/25 05:25:50;;;;;;;2.10;0.82;;;;;;;18.81;58.23;96557.59;10170123;29;20500;-81
2022/05/25 05:31:09;;;;;;;0.93;0.88;;;;;;;18.79;58.41;96563.28;10181184;29;20107;-81
2022/05/25 05:36:33;;;;;;;1.25;0.90;;;;;;;18.78;58.31;96557.09;10186604;29;20055;-82
2022/05/25 05:41:56;;;;;;;0.80;0.80;;;;;;;18.80;58.26;96561.41;10187472;29;20048;-82
2022/05/25 05:47:20;;;;;;;1.17;0.95;;;;;;;18.78;58.11;96584.09;10175333;29;20411;-81
2022/05/25 05:52:39;;;;;;;1.10;0.90;;;;;;;18.79;58.23;96565.97;10155264;29;20052;-82
2022/05/25 05:57:59;;;;;;;1.40;1.20;;;;;;;18.78;58.42;96581.38;10195071;29;20048;-82
2022/05/25 06:03:19;;;;;;;2.25;1.20;;;;;;;18.80;58.73;96583.81;10194310;29;20048;-83
2022/05/25 06:08:38;;;;;;;4.00;1.70;;;;;;;18.78;58.97;96586.78;10201267;29;20431;-82
2022/05/25 06:13:57;;;;;;;3.28;1.90;;;;;;;18.78;59.18;96594.88;10152347;29;21496;-81
2022/05/25 06:19:26;;;;;;;5.53;2.03;;;;;;;18.78;59.39;96599.50;10179880;29;20059;-80
2022/05/25 06:24:51;;;;;;;2.80;1.98;;;;;;;18.78;59.18;96602.97;10171428;29;20056;-81
2022/05/25 06:30:11;;;;;;;6.75;2.40;;;;;;;18.78;59.12;96594.88;10168649;29;20060;-81
2022/05/25 06:35:31;;;;;;;16.92;4.85;;;;;;;18.80;59.36;96580.28;10191633;29;20543;-84
2022/05/25 06:40:51;;;;;;;16.25;5.28;;;;;;;18.78;59.25;96576.00;10179494;29;20062;-82
2022/05/25 06:46:12;;;;;;;14.30;5.38;;;;;;;18.78;59.27;96608.38;10151495;29;20068;-82
2022/05/25 06:51:33;;;;;;;10.90;5.40;;;;;;;18.79;59.32;96609.16;10170355;29;20060;-82
2022/05/25 06:56:53;;;;;;;13.20;5.72;;;;;;;18.80;59.24;96618.06;10153818;29;20107;-82
2022/05/25 07:02:12;;;;;;;10.38;4.65;;;;;;;18.81;59.10;96635.88;10173348;29;20472;-82
2022/05/25 07:07:32;;;;;;;9.60;4.43;;;;;;;18.83;58.91;96647.13;10177148;29;20511;-82
2022/05/25 07:12:52;;;;;;;10.25;4.38;;;;;;;18.84;58.89;96643.31;10195206;29;20067;-82
2022/05/25 07:18:11;;;;;;;8.75;4.47;;;;;;;18.86;58.83;96658.06;10174892;29;20058;-82
2022/05/25 07:23:31;;;;;;;8.82;4.93;;;;;;;18.88;58.79;96671.25;10189934;29;20060;-83
2022/05/25 07:28:51;;;;;;;7.57;5.03;;;;;;;18.91;58.83;96678.69;10175283;29;20499;-82
2022/05/25 07:34:16;;;;;;;6.35;4.70;;;;;;;18.93;58.89;96698.06;10177755;29;20760;-82
2022/05/25 07:39:40;;;;;;;8.48;5.32;;;;;;;18.95;58.95;96685.03;10201879;29;20056;-82
2022/05/25 07:45:03;;;;;;;8.90;5.22;;;;;;;18.97;58.88;96688.19;10158546;29;20697;-82
2022/05/25 07:50:23;;;;;;;8.65;5.35;;;;;;;19.01;58.78;96691.03;10178636;29;20056;-83
2022/05/25 07:55:43;;;;;;;8.38;5.43;;;;;;;19.03;58.75;96697.69;10181744;29;20496;-82
2022/05/25 08:01:08;;;;;;;9.00;5.65;;;;;;;19.06;58.73;96715.97;10197470;29;20392;-82
2022/05/25 08:06:28;;;;;;;6.95;5.45;;;;;;;19.09;58.71;96725.31;10197230;29;20052;-82
2022/05/25 08:11:48;;;;;;;8.65;5.50;;;;;;;19.12;58.72;96730.88;10189927;29;20078;-83
2022/05/25 08:17:07;;;;;;;9.23;5.82;;;;;;;19.15;58.67;96734.81;10192920;29;20067;-82
2022/05/25 08:22:27;;;;;;;8.07;5.80;;;;;;;19.19;58.84;96729.56;10187687;29;20111;-82
2022/05/25 08:27:46;;;;;;;6.47;5.55;;;;;;;19.22;58.76;96751.34;10176453;29;20060;-82
2022/05/25 08:33:07;;;;;;;7.13;5.72;;;;;;;19.26;58.76;96757.66;10196992;29;20056;-82
2022/05/25 08:38:27;;;;;;;7.18;5.88;;;;;;;19.31;58.71;96767.53;10188001;29;20044;-83
2022/05/25 08:43:47;;;;;;;6.95;6.13;;;;;;;19.33;58.87;96765.28;10187144;29;20054;-83
2022/05/25 08:49:11;;;;;;;11.60;5.85;;;;;;;19.40;59.06;96768.25;10190168;29;20084;-83
2022/05/25 08:54:35;;;;;;;8.55;6.32;;;;;;;19.40;59.06;96768.25;10152538;29;20075;-83
2022/05/25 09:00:06;;;;;;;11.35;6.00;;;;;;;19.51;58.97;96769.50;10183068;29;20060;-84
2022/05/25 09:05:52;;;;;;;8.18;6.63;;;;;;;19.52;58.60;96791.91;10168710;29;20055;-83
2022/05/25 09:11:17;;;;;;;11.55;8.10;;;;;;;19.54;58.43;96779.69;10168773;29;20515;-83
2022/05/25 09:16:37;;;;;;;10.43;8.13;;;;;;;19.56;58.55;96792.84;10158364;29;20389;-84
2022/05/25 09:22:02;;;;;;;11.20;7.60;;;;;;;19.60;59.14;96795.69;10168181;29;20094;-83
2022/05/25 09:27:39;;;;;;;8.88;7.28;;;;;;;19.61;59.00;96817.00;10155041;29;20048;-83
2022/05/25 09:33:00;;;;;;;9.30;7.18;;;;;;;19.63;58.66;96827.47;10155526;29;20059;-84
2022/05/25 09:38:30;;;;;;;11.48;6.60;;;;;;;19.64;58.45;96832.56;10181681;29;20401;-83
2022/05/25 09:43:54;;;;;;;6.15;5.38;;;;;;;19.68;58.35;96838.09;10165337;29;20048;-84
2022/05/25 09:49:37;;;;;;;7.88;5.47;;;;;;;19.72;58.37;96853.41;10177049;29;20055;-84
2022/05/25 09:55:01;;;;;;;5.22;4.50;;;;;;;19.74;57.95;96861.97;10144092;29;20052;-84
2022/05/25 10:00:44;;;;;;;6.18;4.38;;;;;;;19.79;57.77;96869.09;10185291;29;20103;-84
2022/05/25 10:06:29;;;;;;;5.03;3.40;;;;;;;19.79;57.77;96869.09;10151707;29;20056;-84
2022/05/25 10:11:51;;;;;;;5.07;3.80;;;;;;;-146.19;100.00;65364.44;10145457;29;20057;-83
2022/05/25 10:17:16;;;;;;;5.80;3.13;;;;;;;-146.19;100.00;65364.44;10156407;29;20056;-83
2022/05/25 10:22:37;;;;;;;4.63;2.97;;;;;;;-146.19;100.00;65364.44;10170322;29;20071;-84
2022/05/25 10:27:58;;;;;;;5.75;3.00;;;;;;;-146.19;100.00;65364.44;10181490;29;20127;-84
2022/05/25 10:39:14;;;;;;;4.38;2.80;;;;;;;-146.19;100.00;65364.44;10183179;29;20111;-84
2022/05/25 10:44:58;;;;;;;3.20;2.47;;;;;;;-146.19;100.00;65364.44;10175492;29;20049;-84
2022/05/25 10:50:32;;;;;;;3.47;2.45;;;;;;;-146.19;100.00;65364.44;10165188;29;20060;-84
2022/05/25 10:56:10;;;;;;;4.30;2.47;;;;;;;-146.19;100.00;65364.44;10144920;29;20389;-83
2022/05/25 11:01:52;;;;;;;3.88;2.28;;;;;;;-146.19;100.00;65364.44;10178221;29;20044;-83
2022/05/25 11:07:21;;;;;;;4.65;2.10;;;;;;;-146.19;100.00;65364.44;10200776;29;20072;-84
2022/05/25 11:13:14;;;;;;;2.33;1.92;;;;;;;-146.19;100.00;65364.44;10189892;29;20060;-84
2022/05/25 11:18:56;;;;;;;2.25;2.03;;;;;;;-146.19;100.00;65364.44;10165675;29;20052;-84
2022/05/25 11:24:45;;;;;;;2.85;2.08;;;;;;;-146.19;100.00;65364.44;10183756;29;20071;-83
2022/05/25 11:30:09;;;;;;;2.53;1.80;;;;;;;-146.19;100.00;65364.44;10155161;29;20056;-83
2022/05/25 11:35:46;;;;;;;1.75;1.38;;;;;;;-146.19;100.00;65364.44;10161111;29;20051;-83
2022/05/25 11:41:43;;;;;;;1.93;1.70;;;;;;;-146.19;100.00;65364.44;10189461;29;20459;-83
2022/05/25 11:47:40;;;;;;;2.60;1.48;;;;;;;-146.19;100.00;65364.44;10194223;29;20127;-84
2022/05/25 11:53:27;;;;;;;2.55;1.50;;;;;;;-146.19;100.00;65364.44;10180160;29;20519;-83
2022/05/25 11:59:13;;;;;;;2.83;1.45;;;;;;;-146.19;100.00;65364.44;10175463;29;20645;-83
2022/05/25 12:04:52;;;;;;;2.97;1.48;;;;;;;-146.19;100.00;65364.44;10177438;29;20048;-83
2022/05/25 12:10:31;;;;;;;;;;;;;;;-146.19;100.00;65364.44;10178140;29;20062;-83
2022/05/25 12:15:59;;;;;;;4.32;1.95;;;;;;;-146.19;100.00;65364.44;10166585;29;19927;-83
2022/05/25 12:21:24;;;;;;;4.95;2.15;;;;;;;-146.19;100.00;65364.44;10156413;29;20503;-83
2022/05/25 12:26:43;;;;;;;5.82;1.92;;;;;;;-146.19;100.00;65364.44;10174497;29;20393;-83
2022/05/25 12:32:05;;;;;;;6.13;2.72;;;;;;;-146.19;100.00;65364.44;10162526;29;20194;-83
2022/05/25 12:37:31;;;;;;;5.57;2.30;;;;;;;-146.19;100.00;65364.44;10185646;29;20130;-83
2022/05/25 12:42:51;;;;;;;6.55;2.85;;;;;;;-146.19;100.00;65364.44;10167614;29;20416;-83
2022/05/25 12:48:31;;;;;;;3.08;2.00;;;;;;;-146.19;100.00;65364.44;10189874;29;20562;-83
2022/05/25 12:53:50;;;;;;;4.13;2.17;;;;;;;-146.19;100.00;65364.44;10209142;29;20060;-82
2022/05/25 12:59:12;;;;;;;4.95;1.90;;;;;;;-146.19;100.00;65364.44;10172258;29;20061;-83
2022/05/25 13:04:44;;;;;;;2.22;1.88;;;;;;;-146.19;100.00;65364.44;10156266;29;20044;-83
2022/05/25 13:10:08;;;;;;;2.72;1.67;;;;;;;-146.19;100.00;65364.44;10165490;29;20067;-84
2022/05/25 13:15:31;;;;;;;3.65;1.67;;;;;;;-146.19;100.00;65364.44;10185537;29;20048;-83
2022/05/25 13:20:50;;;;;;;1.73;1.40;;;;;;;-146.19;100.00;65364.44;10179400;29;20059;-83
2022/05/25 13:26:10;;;;;;;2.92;1.88;;;;;;;-146.19;100.00;65364.44;10175538;29;20052;-83
2022/05/25 13:31:41;;;;;;;1.98;1.83;;;;;;;-146.19;100.00;65364.44;10147884;29;20107;-83
2022/05/25 13:37:05;;;;;;;2.10;1.85;;;;;;;-146.19;100.00;65364.44;10176937;29;20507;-83
2022/05/25 13:42:25;;;;;;;2.65;2.00;;;;;;;-146.19;100.00;65364.44;10190018;29;20067;-82
2022/05/25 13:47:55;;;;;;;3.10;2.10;;;;;;;-146.19;100.00;65364.44;10180587;29;20487;-82
2022/05/25 13:53:33;;;;;;;4.75;1.85;;;;;;;-146.19;100.00;65364.44;10171078;29;20066;-82
2022/05/25 13:59:04;;;;;;;2.90;1.90;;;;;;;-146.19;100.00;65364.44;10181273;29;20055;-83
2022/05/25 14:04:26;;;;;;;2.17;1.92;;;;;;;-146.19;100.00;65364.44;10193653;29;20083;-83
2022/05/25 14:15:24;;;;;;;6.32;1.70;;;;;;;-146.19;100.00;65364.44;10164730;29;20052;-84
2022/05/25 14:20:44;;;;;;;2.17;1.70;;;;;;;-146.19;100.00;65364.44;10194777;29;20502;-83
2022/05/25 14:26:05;;;;;;;3.08;1.63;;;;;;;-146.19;100.00;65364.44;10165198;29;20040;-83
2022/05/25 14:31:25;;;;;;;1.98;1.38;;;;;;;-146.19;100.00;65364.44;10157977;29;20157;-83
2022/05/25 14:36:47;;;;;;;2.65;1.20;;;;;;;-146.19;100.00;65364.44;10177215;29;20567;-83
2022/05/25 14:42:16;;;;;;;2.47;1.13;;;;;;;-146.19;100.00;65364.44;10193915;29;20463;-82
2022/05/25 14:47:36;;;;;;;1.10;1.00;;;;;;;19.79;57.77;96869.09;10199205;29;20048;-82
2022/05/25 14:53:01;;;;;;;2.78;1.20;;;;;;;20.88;52.38;96839.69;10133095;29;20076;-82
2022/05/25 14:58:23;;;;;;;1.88;1.10;;;;;;;20.90;53.17;96843.63;10188985;29;20076;-82
2022/05/25 15:04:00;;;;;;;2.80;1.20;;;;;;;20.92;52.96;96846.03;10192470;29;20056;-83
2022/05/25 15:09:29;;;;;;;2.75;1.00;;;;;;;20.91;52.78;96844.41;10167030;29;20488;-82
2022/05/25 15:21:12;;;;;;;5.78;1.10;;;;;;;20.89;51.30;96841.25;10204009;29;20111;-83
2022/05/25 15:26:35;;;;;;;4.10;0.90;;;;;;;20.89;51.42;96849.38;10193327;29;20063;-85
2022/05/25 15:31:56;;;;;;;1.83;0.80;;;;;;;20.88;51.21;96839.69;10189514;29;20060;-85
2022/05/25 15:37:22;;;;;;;2.00;0.90;;;;;;;20.87;50.78;96830.75;10161149;29;20060;-85
2022/05/25 15:42:41;;;;;;;2.47;1.00;;;;;;;20.88;51.02;96834.25;10174759;29;20052;-84
2022/05/25 15:48:04;;;;;;;2.05;0.90;;;;;;;20.89;50.95;96833.13;10174201;29;20052;-84
2022/05/25 15:53:23;;;;;;;2.33;1.00;;;;;;;20.88;51.46;96826.94;10160743;29;20058;-84
2022/05/25 15:58:44;;;;;;;1.00;0.80;;;;;;;20.90;51.52;96826.59;10197426;29;20380;-84
2022/05/25 16:04:09;;;;;;;1.67;0.90;;;;;;;20.89;51.73;96842.03;10170682;29;20052;-85
2022/05/25 16:09:29;;;;;;;2.58;1.10;;;;;;;20.88;51.81;96835.06;10159720;29;20066;-84
2022/05/25 16:14:51;;;;;;;2.47;1.00;;;;;;;20.88;51.95;96828.84;10173131;29;20461;-84
2022/05/25 16:20:12;;;;;;;2.72;1.08;;;;;;;20.87;52.10;96835.38;10156671;29;20063;-82
2022/05/25 16:25:33;;;;;;;1.10;1.00;;;;;;;20.86;52.23;96833.81;10166929;29;20101;-83
2022/05/25 16:30:53;;;;;;;2.53;1.00;;;;;;;20.86;51.90;96831.88;10165718;29;20060;-83
2022/05/25 16:36:12;;;;;;;2.35;1.00;;;;;;;20.85;51.48;96830.28;10186764;29;20056;-83
2022/05/25 16:41:34;;;;;;;2.70;0.80;;;;;;;20.85;51.54;96830.28;10192899;29;20054;-83
2022/05/25 16:46:54;;;;;;;2.17;0.90;;;;;;;20.83;51.23;96831.75;10193996;29;20048;-83
2022/05/25 16:52:13;;;;;;;1.55;0.95;;;;;;;20.80;51.70;96837.84;10179733;29;20089;-83
2022/05/25 16:57:34;;;;;;;1.63;0.80;;;;;;;20.77;51.62;96839.28;10204579;29;20048;-83
2022/05/25 17:02:54;;;;;;;1.20;0.80;;;;;;;20.79;52.15;96838.97;10184465;29;20071;-83
2022/05/25 17:08:14;;;;;;;3.03;1.08;;;;;;;20.78;52.02;96843.59;10170919;29;20059;-83
2022/05/25 17:13:37;;;;;;;4.28;1.05;;;;;;;20.73;52.17;96849.19;10180989;28;20059;-83
2022/05/25 17:24:35;;;;;;;1.00;0.90;;;;;;;20.68;52.83;96858.31;10183097;29;20492;-84
2022/05/25 17:29:54;;;;;;;2.65;0.80;;;;;;;20.69;52.97;96851.75;10153064;29;20045;-83
2022/05/25 17:35:14;;;;;;;1.23;0.82;;;;;;;20.69;53.22;96851.75;10144050;29;20053;-82
2022/05/25 17:46:11;;;;;;;2.80;1.10;;;;;;;20.68;53.57;96854.78;10150873;29;20052;-83
2022/05/25 17:51:30;;;;;;;3.03;1.50;;;;;;;20.61;53.63;96863.44;10148187;29;20795;-83
2022/05/25 17:56:50;;;;;;;2.70;1.67;;;;;;;20.55;53.36;96870.16;10146758;29;20048;-83
2022/05/25 18:02:11;;;;;;;1.70;1.20;;;;;;;20.49;53.06;96871.47;10190557;29;20416;-85
2022/05/25 18:07:31;;;;;;;2.33;1.00;;;;;;;20.41;52.69;96877.72;10185060;29;20056;-85
2022/05/25 18:12:50;;;;;;;2.58;1.38;;;;;;;20.35;52.43;96882.53;10171592;29;20456;-85
2022/05/25 18:18:15;;;;;;;2.33;1.08;;;;;;;20.33;52.43;96874.75;10142448;29;20052;-85
2022/05/25 18:23:35;;;;;;;4.30;1.10;;;;;;;20.41;52.69;96883.16;10146860;29;20048;-86
2022/05/25 18:28:55;;;;;;;1.38;0.98;;;;;;;20.45;52.71;96882.16;10173389;29;20126;-84
2022/05/25 18:34:14;;;;;;;7.95;0.98;;;;;;;20.49;52.77;96895.81;10152431;29;20133;-84
2022/05/25 18:39:34;;;;;;;1.02;0.90;;;;;;;20.51;53.04;96896.28;10148076;29;20048;-84
2022/05/25 18:44:53;;;;;;;1.35;1.00;;;;;;;20.53;53.08;96902.16;10141128;29;20112;-83
2022/05/25 18:50:16;;;;;;;1.20;1.08;;;;;;;20.52;53.36;96905.97;10147909;29;20560;-85
2022/05/25 18:55:35;;;;;;;1.20;1.02;;;;;;;20.53;53.56;96915.69;10135287;29;20048;-86
2022/05/25 19:00:56;;;;;;;2.30;0.90;;;;;;;20.52;53.91;96925.72;10159503;29;20052;-85
2022/05/25 19:06:15;;;;;;;1.63;1.15;;;;;;;20.52;54.14;96925.72;10150758;29;20053;-84
2022/05/25 19:11:35;;;;;;;1.17;0.93;;;;;;;20.50;54.20;96927.97;10153307;29;20476;-84
2022/05/25 19:16:56;;;;;;;3.58;0.90;;;;;;;20.50;54.35;96937.97;10135614;29;20052;-85
2022/05/25 19:22:24;;;;;;;1.25;1.05;;;;;;;20.50;54.37;96944.22;10154708;29;20053;-85
2022/05/25 19:27:44;;;;;;;1.65;0.93;;;;;;;20.51;54.22;96950.41;10170855;29;20416;-87
2022/05/25 19:33:05;;;;;;;2.55;1.20;;;;;;;20.50;54.68;96955.03;10174432;29;20053;-86
2022/05/25 19:38:26;;;;;;;6.05;1.10;;;;;;;20.51;54.15;96966.66;10149308;29;20059;-84
2022/05/25 19:43:51;;;;;;;1.33;0.82;;;;;;;20.52;53.82;96973.63;10149647;29;20048;-83
2022/05/25 19:49:11;;;;;;;1.50;0.93;;;;;;;20.49;53.62;96980.50;10154945;29;20057;-84
2022/05/25 19:54:31;;;;;;;2.20;1.00;;;;;;;20.49;53.56;96988.63;10157685;29;20595;-85
2022/05/25 19:59:51;;;;;;;1.85;1.00;;;;;;;20.49;53.14;96999.44;10157958;29;20048;-84
2022/05/25 20:05:10;;;;;;;1.00;0.85;;;;;;;20.48;53.07;97002.47;10148049;29;20080;-84
2022/05/25 20:10:30;;;;;;;3.85;1.20;;;;;;;20.47;52.69;96992.78;10152020;29;20507;-84
2022/05/25 20:15:50;;;;;;;2.60;0.90;;;;;;;20.46;52.59;96999.28;10144646;29;20629;-85
2022/05/25 20:21:10;;;;;;;1.02;0.93;;;;;;;20.45;52.59;97011.25;10153822;29;20059;-85
2022/05/25 20:26:29;;;;;;;0.90;0.80;;;;;;;20.44;52.34;97002.31;10155906;29;20519;-85
2022/05/25 20:31:50;;;;;;;1.95;1.13;;;;;;;20.44;52.13;97006.94;10152346;29;20580;-85
2022/05/25 20:37:10;;;;;;;1.65;0.90;;;;;;;20.44;52.07;97001.53;10141169;29;20500;-84
2022/05/25 20:42:30;;;;;;;0.98;0.70;;;;;;;20.42;52.10;97004.56;10169627;29;20056;-85
2022/05/25 20:47:52;;;;;;;1.00;0.80;;;;;;;20.42;51.88;97012.69;10164106;29;20044;-85
2022/05/25 20:53:11;;;;;;;2.15;0.82;;;;;;;20.40;51.73;97008.72;10167042;29;20079;-85
2022/05/25 20:58:31;;;;;;;1.63;0.80;;;;;;;20.40;51.65;97014.13;10164514;29;20055;-84
2022/05/25 21:03:50;;;;;;;1.00;0.90;;;;;;;20.38;51.71;97013.66;10181265;29;20069;-86
2022/05/25 21:09:10;;;;;;;0.90;0.70;;;;;;;20.39;51.42;97017.97;10146879;29;20056;-84
2022/05/25 21:14:29;;;;;;;2.58;0.80;;;;;;;20.37;51.80;97014.78;10149905;29;20463;-88
2022/05/25 21:19:49;;;;;;;4.45;0.90;;;;;;;20.37;51.87;97022.91;10153585;29;20055;-86
2022/05/25 21:25:10;;;;;;;1.60;0.80;;;;;;;20.39;51.88;97023.38;10148772;29;20084;-86
2022/05/25 21:36:10;;;;;;;4.28;0.90;;;;;;;20.41;52.17;97037.38;10175089;29;20055;-87
2022/05/25 21:41:30;;;;;;;0.80;0.80;;;;;;;20.40;52.40;97043.91;10173102;29;20048;-85
2022/05/25 21:52:33;;;;;;;0.70;0.70;;;;;;;20.34;52.67;97048.69;10163874;29;20056;-84
2022/05/25 21:57:54;;;;;;;1.75;0.70;;;;;;;20.32;52.78;97051.69;10182564;29;20492;-83
2022/05/25 22:03:14;;;;;;;1.85;0.90;;;;;;;20.31;52.84;97052.06;10167443;29;20056;-84
2022/05/25 22:08:33;;;;;;;1.17;0.60;;;;;;;20.29;53.01;97055.06;10169820;29;20507;-84
2022/05/25 22:13:53;;;;;;;1.40;0.80;;;;;;;20.28;53.00;97056.16;10166634;29;20056;-84
2022/05/25 22:19:13;;;;;;;1.00;0.90;;;;;;;20.27;53.08;97057.31;10156257;29;20052;-84
2022/05/25 22:24:34;;;;;;;0.52;0.50;;;;;;;20.26;53.01;97054.91;10169672;29;20086;-84
2022/05/25 22:29:53;;;;;;;0.85;0.80;;;;;;;20.25;53.13;97064.94;10168177;29;20052;-84
2022/05/25 22:35:13;;;;;;;0.60;0.60;;;;;;;20.26;53.14;97069.22;10156186;29;20048;-83
2022/05/25 22:40:33;;;;;;;1.00;0.70;;;;;;;20.24;53.28;97071.47;10145092;29;20052;-84
2022/05/25 22:45:53;;;;;;;0.85;0.73;;;;;;;20.24;53.33;97081.50;10160001;29;20063;-84
2022/05/25 22:51:12;;;;;;;0.60;0.60;;;;;;;20.22;53.17;97079.09;10180839;29;20614;-84
2022/05/25 22:56:32;;;;;;;1.00;0.80;;;;;;;20.21;53.22;97077.53;10182586;29;20052;-84
2022/05/25 23:01:51;;;;;;;0.80;0.80;;;;;;;20.22;53.30;97083.72;10166555;29;20052;-84
2022/05/25 23:07:11;;;;;;;0.60;0.60;;;;;;;20.20;53.11;97084.03;10168995;29;20082;-84
2022/05/25 23:12:31;;;;;;;1.05;0.70;;;;;;;20.19;53.21;97084.34;10141789;29;20056;-84
2022/05/25 23:17:50;;;;;;;0.73;0.73;;;;;;;20.19;53.19;97085.19;10167002;29;20686;-83
2022/05/25 23:23:10;;;;;;;1.05;0.70;;;;;;;20.19;53.10;97084.34;10168188;29;20063;-86
2022/05/25 23:34:08;;;;;;;0.98;0.70;;;;;;;20.14;53.23;97083.41;10167490;29;20056;-84
2022/05/25 23:39:27;;;;;;;0.93;0.80;;;;;;;20.14;53.22;97093.44;10162888;29;20056;-84
2022/05/25 23:44:47;;;;;;;2.35;0.75;;;;;;;20.14;53.27;97090.75;10175034;29;20518;-84
2022/05/25 23:50:08;;;;;;;0.70;0.70;;;;;;;20.14;53.23;97093.44;10161593;29;20112;-83
2022/05/25 23:55:27;;;;;;;1.02;0.80;;;;;;;20.13;53.18;97094.56;10171642;29;20480;-84
